sensor_id;sensor_type;location;lat;lon;timestamp;P1;durP1;ratioP1;P2;durP2;ratioP2
72584;SDS011;60618;40.084;32.908;2023-09-07T00:01:01;16.50;;;9.40;;
72584;SDS011;60618;40.084;32.908;2023-09-07T00:03:32;15.15;;;9.55;;
72584;SDS011;60618;40.084;32.908;2023-09-07T00:05:59;15.93;;;9.37;;
72584;SDS011;60618;40.084;32.908;2023-09-07T00:08:26;15.38;;;9.20;;
72584;SDS011;60618;40.084;32.908;2023-09-07T00:10:53;14.20;;;9.30;;
72584;SDS011;60618;40.084;32.908;2023-09-07T00:13:20;14.85;;;9.43;;
72584;SDS011;60618;40.084;32.908;2023-09-07T00:15:47;12.88;;;9.02;;
72584;SDS011;60618;40.084;32.908;2023-09-07T00:18:14;14.37;;;9.37;;
72584;SDS011;60618;40.084;32.908;2023-09-07T00:20:44;12.98;;;9.07;;
72584;SDS011;60618;40.084;32.908;2023-09-07T00:23:11;13.73;;;9.55;;
72584;SDS011;60618;40.084;32.908;2023-09-07T00:25:38;15.10;;;9.63;;
72584;SDS011;60618;40.084;32.908;2023-09-07T00:28:05;13.52;;;8.82;;
72584;SDS011;60618;40.084;32.908;2023-09-07T00:30:32;13.53;;;8.83;;
72584;SDS011;60618;40.084;32.908;2023-09-07T00:32:58;15.18;;;9.35;;
72584;SDS011;60618;40.084;32.908;2023-09-07T00:35:25;17.48;;;9.40;;
72584;SDS011;60618;40.084;32.908;2023-09-07T00:37:52;12.50;;;8.98;;
72584;SDS011;60618;40.084;32.908;2023-09-07T00:40:19;12.68;;;8.65;;
72584;SDS011;60618;40.084;32.908;2023-09-07T00:42:46;14.87;;;8.97;;
72584;SDS011;60618;40.084;32.908;2023-09-07T00:45:13;14.27;;;9.05;;
72584;SDS011;60618;40.084;32.908;2023-09-07T00:47:40;14.73;;;8.80;;
72584;SDS011;60618;40.084;32.908;2023-09-07T00:50:08;13.98;;;9.32;;
72584;SDS011;60618;40.084;32.908;2023-09-07T00:52:35;14.60;;;8.77;;
72584;SDS011;60618;40.084;32.908;2023-09-07T00:55:04;16.13;;;8.87;;
72584;SDS011;60618;40.084;32.908;2023-09-07T00:57:31;13.90;;;8.73;;
72584;SDS011;60618;40.084;32.908;2023-09-07T00:59:59;14.57;;;8.98;;
72584;SDS011;60618;40.084;32.908;2023-09-07T01:02:26;15.30;;;9.50;;
72584;SDS011;60618;40.084;32.908;2023-09-07T01:04:53;14.88;;;9.02;;
72584;SDS011;60618;40.084;32.908;2023-09-07T01:07:20;14.57;;;9.20;;
72584;SDS011;60618;40.084;32.908;2023-09-07T01:09:51;15.25;;;9.07;;
72584;SDS011;60618;40.084;32.908;2023-09-07T01:12:22;13.75;;;8.95;;
72584;SDS011;60618;40.084;32.908;2023-09-07T01:14:49;15.00;;;9.07;;
72584;SDS011;60618;40.084;32.908;2023-09-07T01:17:16;15.57;;;8.98;;
72584;SDS011;60618;40.084;32.908;2023-09-07T01:19:43;13.90;;;9.20;;
72584;SDS011;60618;40.084;32.908;2023-09-07T01:22:11;14.52;;;9.25;;
72584;SDS011;60618;40.084;32.908;2023-09-07T01:24:39;14.55;;;9.13;;
72584;SDS011;60618;40.084;32.908;2023-09-07T01:27:10;15.90;;;9.30;;
72584;SDS011;60618;40.084;32.908;2023-09-07T01:29:39;14.27;;;9.05;;
72584;SDS011;60618;40.084;32.908;2023-09-07T01:32:06;12.70;;;9.07;;
72584;SDS011;60618;40.084;32.908;2023-09-07T01:34:36;13.45;;;8.98;;
72584;SDS011;60618;40.084;32.908;2023-09-07T01:37:08;13.63;;;9.20;;
72584;SDS011;60618;40.084;32.908;2023-09-07T01:39:35;14.57;;;9.25;;
72584;SDS011;60618;40.084;32.908;2023-09-07T01:42:02;12.93;;;8.60;;
72584;SDS011;60618;40.084;32.908;2023-09-07T01:44:29;14.33;;;9.00;;
72584;SDS011;60618;40.084;32.908;2023-09-07T01:46:56;14.80;;;9.25;;
72584;SDS011;60618;40.084;32.908;2023-09-07T01:49:23;13.35;;;8.90;;
72584;SDS011;60618;40.084;32.908;2023-09-07T01:51:53;14.15;;;9.57;;
72584;SDS011;60618;40.084;32.908;2023-09-07T01:54:21;15.65;;;9.32;;
72584;SDS011;60618;40.084;32.908;2023-09-07T01:56:48;15.70;;;9.10;;
72584;SDS011;60618;40.084;32.908;2023-09-07T01:59:15;15.20;;;10.07;;
72584;SDS011;60618;40.084;32.908;2023-09-07T02:01:42;15.25;;;9.93;;
72584;SDS011;60618;40.084;32.908;2023-09-07T02:04:09;16.80;;;10.00;;
72584;SDS011;60618;40.084;32.908;2023-09-07T02:06:36;14.63;;;9.48;;
72584;SDS011;60618;40.084;32.908;2023-09-07T02:09:03;15.37;;;9.40;;
72584;SDS011;60618;40.084;32.908;2023-09-07T02:11:30;14.73;;;9.98;;
72584;SDS011;60618;40.084;32.908;2023-09-07T02:13:57;14.30;;;9.63;;
72584;SDS011;60618;40.084;32.908;2023-09-07T02:16:24;16.90;;;9.07;;
72584;SDS011;60618;40.084;32.908;2023-09-07T02:18:59;14.18;;;9.38;;
72584;SDS011;60618;40.084;32.908;2023-09-07T02:21:27;14.20;;;8.97;;
72584;SDS011;60618;40.084;32.908;2023-09-07T02:23:54;14.60;;;10.18;;
72584;SDS011;60618;40.084;32.908;2023-09-07T02:26:21;14.55;;;9.50;;
72584;SDS011;60618;40.084;32.908;2023-09-07T02:28:48;16.10;;;9.77;;
72584;SDS011;60618;40.084;32.908;2023-09-07T02:31:15;16.05;;;9.73;;
72584;SDS011;60618;40.084;32.908;2023-09-07T02:33:42;15.30;;;9.77;;
72584;SDS011;60618;40.084;32.908;2023-09-07T02:36:09;13.50;;;9.77;;
72584;SDS011;60618;40.084;32.908;2023-09-07T02:38:36;12.85;;;9.10;;
72584;SDS011;60618;40.084;32.908;2023-09-07T02:41:03;14.07;;;9.75;;
72584;SDS011;60618;40.084;32.908;2023-09-07T02:43:30;15.25;;;9.50;;
72584;SDS011;60618;40.084;32.908;2023-09-07T02:45:57;15.70;;;9.63;;
72584;SDS011;60618;40.084;32.908;2023-09-07T02:48:24;15.73;;;9.38;;
72584;SDS011;60618;40.084;32.908;2023-09-07T02:50:51;14.43;;;9.80;;
72584;SDS011;60618;40.084;32.908;2023-09-07T02:53:18;14.90;;;9.30;;
72584;SDS011;60618;40.084;32.908;2023-09-07T02:55:45;16.52;;;10.05;;
72584;SDS011;60618;40.084;32.908;2023-09-07T02:58:12;14.63;;;9.90;;
72584;SDS011;60618;40.084;32.908;2023-09-07T03:00:42;14.95;;;9.95;;
72584;SDS011;60618;40.084;32.908;2023-09-07T03:03:11;16.70;;;9.73;;
72584;SDS011;60618;40.084;32.908;2023-09-07T03:05:40;14.68;;;9.82;;
72584;SDS011;60618;40.084;32.908;2023-09-07T03:08:07;15.05;;;10.20;;
72584;SDS011;60618;40.084;32.908;2023-09-07T03:10:37;16.07;;;10.10;;
72584;SDS011;60618;40.084;32.908;2023-09-07T03:13:05;18.27;;;9.90;;
72584;SDS011;60618;40.084;32.908;2023-09-07T03:15:33;15.68;;;9.57;;
72584;SDS011;60618;40.084;32.908;2023-09-07T03:18:00;14.32;;;9.57;;
72584;SDS011;60618;40.084;32.908;2023-09-07T03:20:27;16.02;;;10.10;;
72584;SDS011;60618;40.084;32.908;2023-09-07T03:22:54;17.93;;;10.07;;
72584;SDS011;60618;40.084;32.908;2023-09-07T03:25:21;14.85;;;9.30;;
72584;SDS011;60618;40.084;32.908;2023-09-07T03:27:48;14.93;;;9.80;;
72584;SDS011;60618;40.084;32.908;2023-09-07T03:30:15;15.95;;;9.90;;
72584;SDS011;60618;40.084;32.908;2023-09-07T03:32:42;13.73;;;9.77;;
72584;SDS011;60618;40.084;32.908;2023-09-07T03:35:09;15.53;;;9.93;;
72584;SDS011;60618;40.084;32.908;2023-09-07T03:37:36;15.60;;;9.88;;
72584;SDS011;60618;40.084;32.908;2023-09-07T03:40:03;15.70;;;9.95;;
72584;SDS011;60618;40.084;32.908;2023-09-07T03:42:31;16.30;;;10.20;;
72584;SDS011;60618;40.084;32.908;2023-09-07T03:44:59;15.75;;;9.73;;
72584;SDS011;60618;40.084;32.908;2023-09-07T03:47:26;15.30;;;9.90;;
72584;SDS011;60618;40.084;32.908;2023-09-07T03:49:53;15.00;;;10.07;;
72584;SDS011;60618;40.084;32.908;2023-09-07T03:52:20;14.10;;;9.55;;
72584;SDS011;60618;40.084;32.908;2023-09-07T03:54:46;16.65;;;9.80;;
72584;SDS011;60618;40.084;32.908;2023-09-07T03:57:13;16.23;;;9.40;;
72584;SDS011;60618;40.084;32.908;2023-09-07T03:59:40;18.33;;;9.90;;
72584;SDS011;60618;40.084;32.908;2023-09-07T04:02:07;13.85;;;9.70;;
72584;SDS011;60618;40.084;32.908;2023-09-07T04:04:34;14.05;;;9.63;;
72584;SDS011;60618;40.084;32.908;2023-09-07T04:07:01;13.57;;;10.07;;
72584;SDS011;60618;40.084;32.908;2023-09-07T04:09:28;14.13;;;9.32;;
72584;SDS011;60618;40.084;32.908;2023-09-07T04:11:55;14.37;;;9.13;;
72584;SDS011;60618;40.084;32.908;2023-09-07T04:14:22;13.10;;;8.98;;
72584;SDS011;60618;40.084;32.908;2023-09-07T04:16:49;13.07;;;9.07;;
72584;SDS011;60618;40.084;32.908;2023-09-07T04:19:16;15.30;;;9.10;;
72584;SDS011;60618;40.084;32.908;2023-09-07T04:21:43;15.00;;;9.40;;
72584;SDS011;60618;40.084;32.908;2023-09-07T04:24:10;14.27;;;8.90;;
72584;SDS011;60618;40.084;32.908;2023-09-07T04:26:37;13.13;;;8.65;;
72584;SDS011;60618;40.084;32.908;2023-09-07T04:29:04;12.57;;;8.93;;
72584;SDS011;60618;40.084;32.908;2023-09-07T04:31:34;15.05;;;8.90;;
72584;SDS011;60618;40.084;32.908;2023-09-07T04:34:01;13.27;;;9.25;;
72584;SDS011;60618;40.084;32.908;2023-09-07T04:36:28;14.17;;;9.00;;
72584;SDS011;60618;40.084;32.908;2023-09-07T04:38:55;14.23;;;8.65;;
72584;SDS011;60618;40.084;32.908;2023-09-07T04:41:22;14.98;;;9.27;;
72584;SDS011;60618;40.084;32.908;2023-09-07T04:43:49;13.90;;;9.35;;
72584;SDS011;60618;40.084;32.908;2023-09-07T04:46:16;13.57;;;9.35;;
72584;SDS011;60618;40.084;32.908;2023-09-07T04:48:46;15.33;;;9.43;;
72584;SDS011;60618;40.084;32.908;2023-09-07T04:51:12;14.18;;;9.65;;
72584;SDS011;60618;40.084;32.908;2023-09-07T04:53:39;14.35;;;8.77;;
72584;SDS011;60618;40.084;32.908;2023-09-07T04:56:07;13.15;;;9.25;;
72584;SDS011;60618;40.084;32.908;2023-09-07T04:58:34;13.80;;;9.32;;
72584;SDS011;60618;40.084;32.908;2023-09-07T05:01:11;13.77;;;8.67;;
72584;SDS011;60618;40.084;32.908;2023-09-07T05:03:38;13.35;;;8.77;;
72584;SDS011;60618;40.084;32.908;2023-09-07T05:06:06;14.52;;;8.93;;
72584;SDS011;60618;40.084;32.908;2023-09-07T05:08:33;12.77;;;8.57;;
72584;SDS011;60618;40.084;32.908;2023-09-07T05:11:01;14.05;;;9.10;;
72584;SDS011;60618;40.084;32.908;2023-09-07T05:13:29;13.43;;;8.73;;
72584;SDS011;60618;40.084;32.908;2023-09-07T05:15:58;14.75;;;8.95;;
72584;SDS011;60618;40.084;32.908;2023-09-07T05:18:26;13.98;;;8.90;;
72584;SDS011;60618;40.084;32.908;2023-09-07T05:20:53;14.52;;;8.95;;
72584;SDS011;60618;40.084;32.908;2023-09-07T05:23:20;14.60;;;8.63;;
72584;SDS011;60618;40.084;32.908;2023-09-07T05:25:50;13.80;;;8.70;;
72584;SDS011;60618;40.084;32.908;2023-09-07T05:28:22;13.77;;;9.50;;
72584;SDS011;60618;40.084;32.908;2023-09-07T05:30:49;14.13;;;9.00;;
72584;SDS011;60618;40.084;32.908;2023-09-07T05:33:16;13.18;;;9.07;;
72584;SDS011;60618;40.084;32.908;2023-09-07T05:35:44;11.93;;;8.32;;
72584;SDS011;60618;40.084;32.908;2023-09-07T05:38:11;12.57;;;8.70;;
72584;SDS011;60618;40.084;32.908;2023-09-07T05:40:39;13.00;;;9.20;;
72584;SDS011;60618;40.084;32.908;2023-09-07T05:43:08;12.95;;;8.73;;
72584;SDS011;60618;40.084;32.908;2023-09-07T05:45:40;12.00;;;8.80;;
72584;SDS011;60618;40.084;32.908;2023-09-07T05:48:07;15.13;;;8.70;;
72584;SDS011;60618;40.084;32.908;2023-09-07T05:50:35;12.00;;;8.60;;
72584;SDS011;60618;40.084;32.908;2023-09-07T05:53:03;12.15;;;9.00;;
72584;SDS011;60618;40.084;32.908;2023-09-07T05:55:30;12.85;;;8.63;;
72584;SDS011;60618;40.084;32.908;2023-09-07T05:57:58;12.38;;;8.27;;
72584;SDS011;60618;40.084;32.908;2023-09-07T06:00:27;11.43;;;7.97;;
72584;SDS011;60618;40.084;32.908;2023-09-07T06:02:54;11.57;;;7.73;;
72584;SDS011;60618;40.084;32.908;2023-09-07T06:05:22;13.75;;;8.82;;
72584;SDS011;60618;40.084;32.908;2023-09-07T06:07:49;10.77;;;7.88;;
72584;SDS011;60618;40.084;32.908;2023-09-07T06:10:16;10.65;;;7.70;;
72584;SDS011;60618;40.084;32.908;2023-09-07T06:12:43;13.35;;;8.15;;
72584;SDS011;60618;40.084;32.908;2023-09-07T06:15:10;12.03;;;8.20;;
72584;SDS011;60618;40.084;32.908;2023-09-07T06:17:37;13.50;;;8.18;;
72584;SDS011;60618;40.084;32.908;2023-09-07T06:20:04;12.90;;;7.90;;
72584;SDS011;60618;40.084;32.908;2023-09-07T06:22:32;10.70;;;8.10;;
72584;SDS011;60618;40.084;32.908;2023-09-07T06:24:59;13.30;;;8.48;;
72584;SDS011;60618;40.084;32.908;2023-09-07T06:27:26;12.40;;;8.50;;
72584;SDS011;60618;40.084;32.908;2023-09-07T06:29:53;12.38;;;8.38;;
72584;SDS011;60618;40.084;32.908;2023-09-07T06:32:19;13.85;;;8.40;;
72584;SDS011;60618;40.084;32.908;2023-09-07T06:34:47;13.93;;;8.63;;
72584;SDS011;60618;40.084;32.908;2023-09-07T06:37:14;12.45;;;8.30;;
72584;SDS011;60618;40.084;32.908;2023-09-07T06:39:41;10.67;;;8.07;;
72584;SDS011;60618;40.084;32.908;2023-09-07T06:42:08;12.50;;;8.50;;
72584;SDS011;60618;40.084;32.908;2023-09-07T06:44:35;16.27;;;8.85;;
72584;SDS011;60618;40.084;32.908;2023-09-07T06:47:01;13.48;;;8.00;;
72584;SDS011;60618;40.084;32.908;2023-09-07T06:49:28;13.52;;;8.57;;
72584;SDS011;60618;40.084;32.908;2023-09-07T06:51:56;12.93;;;8.63;;
72584;SDS011;60618;40.084;32.908;2023-09-07T06:54:23;13.85;;;8.90;;
72584;SDS011;60618;40.084;32.908;2023-09-07T06:56:50;13.80;;;8.57;;
72584;SDS011;60618;40.084;32.908;2023-09-07T06:59:17;15.20;;;8.63;;
72584;SDS011;60618;40.084;32.908;2023-09-07T07:01:44;11.63;;;8.52;;
72584;SDS011;60618;40.084;32.908;2023-09-07T07:04:11;12.40;;;8.57;;
72584;SDS011;60618;40.084;32.908;2023-09-07T07:06:38;11.93;;;8.65;;
72584;SDS011;60618;40.084;32.908;2023-09-07T07:09:05;13.50;;;9.15;;
72584;SDS011;60618;40.084;32.908;2023-09-07T07:11:32;12.57;;;8.50;;
72584;SDS011;60618;40.084;32.908;2023-09-07T07:13:59;12.65;;;8.57;;
72584;SDS011;60618;40.084;32.908;2023-09-07T07:16:26;15.53;;;9.20;;
72584;SDS011;60618;40.084;32.908;2023-09-07T07:18:53;12.75;;;8.95;;
72584;SDS011;60618;40.084;32.908;2023-09-07T07:21:20;14.85;;;9.00;;
72584;SDS011;60618;40.084;32.908;2023-09-07T07:23:47;12.68;;;8.77;;
72584;SDS011;60618;40.084;32.908;2023-09-07T07:26:14;13.20;;;9.05;;
72584;SDS011;60618;40.084;32.908;2023-09-07T07:28:41;14.00;;;8.87;;
72584;SDS011;60618;40.084;32.908;2023-09-07T07:31:09;14.18;;;9.15;;
72584;SDS011;60618;40.084;32.908;2023-09-07T07:33:36;13.95;;;9.30;;
72584;SDS011;60618;40.084;32.908;2023-09-07T07:36:04;13.25;;;9.13;;
72584;SDS011;60618;40.084;32.908;2023-09-07T07:38:31;12.82;;;9.07;;
72584;SDS011;60618;40.084;32.908;2023-09-07T07:40:58;13.23;;;8.60;;
72584;SDS011;60618;40.084;32.908;2023-09-07T07:43:25;13.55;;;9.13;;
72584;SDS011;60618;40.084;32.908;2023-09-07T07:45:53;12.43;;;9.35;;
72584;SDS011;60618;40.084;32.908;2023-09-07T07:48:20;16.55;;;9.30;;
72584;SDS011;60618;40.084;32.908;2023-09-07T07:50:50;13.43;;;9.30;;
72584;SDS011;60618;40.084;32.908;2023-09-07T07:53:17;18.47;;;9.80;;
72584;SDS011;60618;40.084;32.908;2023-09-07T07:55:45;17.90;;;9.57;;
72584;SDS011;60618;40.084;32.908;2023-09-07T07:58:12;12.80;;;9.32;;
72584;SDS011;60618;40.084;32.908;2023-09-07T08:00:39;13.63;;;9.40;;
72584;SDS011;60618;40.084;32.908;2023-09-07T08:03:06;14.65;;;9.20;;
72584;SDS011;60618;40.084;32.908;2023-09-07T08:05:34;12.93;;;9.00;;
72584;SDS011;60618;40.084;32.908;2023-09-07T08:08:01;13.07;;;9.07;;
72584;SDS011;60618;40.084;32.908;2023-09-07T08:10:28;13.30;;;9.30;;
72584;SDS011;60618;40.084;32.908;2023-09-07T08:12:57;15.15;;;9.38;;
72584;SDS011;60618;40.084;32.908;2023-09-07T08:15:24;12.63;;;9.80;;
72584;SDS011;60618;40.084;32.908;2023-09-07T08:17:52;12.50;;;8.80;;
72584;SDS011;60618;40.084;32.908;2023-09-07T08:20:19;11.98;;;8.93;;
72584;SDS011;60618;40.084;32.908;2023-09-07T08:22:48;12.93;;;9.27;;
72584;SDS011;60618;40.084;32.908;2023-09-07T08:25:15;12.35;;;8.77;;
72584;SDS011;60618;40.084;32.908;2023-09-07T08:27:42;12.55;;;9.13;;
72584;SDS011;60618;40.084;32.908;2023-09-07T08:30:09;12.60;;;8.80;;
72584;SDS011;60618;40.084;32.908;2023-09-07T08:32:37;13.50;;;9.55;;
72584;SDS011;60618;40.084;32.908;2023-09-07T08:35:05;13.05;;;8.93;;
72584;SDS011;60618;40.084;32.908;2023-09-07T08:37:32;13.38;;;8.80;;
72584;SDS011;60618;40.084;32.908;2023-09-07T08:39:59;15.30;;;9.38;;
72584;SDS011;60618;40.084;32.908;2023-09-07T08:42:29;12.97;;;9.07;;
72584;SDS011;60618;40.084;32.908;2023-09-07T08:44:57;12.70;;;9.20;;
72584;SDS011;60618;40.084;32.908;2023-09-07T08:47:28;13.75;;;9.80;;
72584;SDS011;60618;40.084;32.908;2023-09-07T08:49:56;12.35;;;9.63;;
72584;SDS011;60618;40.084;32.908;2023-09-07T08:52:24;14.25;;;10.13;;
72584;SDS011;60618;40.084;32.908;2023-09-07T08:57:18;12.55;;;9.35;;
72584;SDS011;60618;40.084;32.908;2023-09-07T08:59:48;12.93;;;9.02;;
72584;SDS011;60618;40.084;32.908;2023-09-07T09:02:15;13.70;;;9.77;;
72584;SDS011;60618;40.084;32.908;2023-09-07T09:04:42;14.20;;;10.25;;
72584;SDS011;60618;40.084;32.908;2023-09-07T09:07:09;13.30;;;9.40;;
72584;SDS011;60618;40.084;32.908;2023-09-07T09:09:36;12.10;;;9.27;;
72584;SDS011;60618;40.084;32.908;2023-09-07T09:12:07;14.52;;;9.95;;
72584;SDS011;60618;40.084;32.908;2023-09-07T09:14:34;11.70;;;9.30;;
72584;SDS011;60618;40.084;32.908;2023-09-07T09:17:01;12.93;;;9.30;;
72584;SDS011;60618;40.084;32.908;2023-09-07T09:19:34;13.20;;;9.27;;
72584;SDS011;60618;40.084;32.908;2023-09-07T09:22:01;15.75;;;9.13;;
72584;SDS011;60618;40.084;32.908;2023-09-07T09:24:31;12.30;;;9.23;;
72584;SDS011;60618;40.084;32.908;2023-09-07T09:27:02;12.38;;;9.57;;
72584;SDS011;60618;40.084;32.908;2023-09-07T09:29:32;13.77;;;9.60;;
72584;SDS011;60618;40.084;32.908;2023-09-07T09:32:08;12.90;;;9.47;;
72584;SDS011;60618;40.084;32.908;2023-09-07T09:34:36;13.13;;;9.98;;
72584;SDS011;60618;40.084;32.908;2023-09-07T09:37:04;14.10;;;10.20;;
72584;SDS011;60618;40.084;32.908;2023-09-07T09:39:31;15.60;;;9.85;;
72584;SDS011;60618;40.084;32.908;2023-09-07T09:41:58;13.80;;;9.82;;
72584;SDS011;60618;40.084;32.908;2023-09-07T09:44:25;18.30;;;9.67;;
72584;SDS011;60618;40.084;32.908;2023-09-07T09:46:55;13.80;;;9.70;;
72584;SDS011;60618;40.084;32.908;2023-09-07T09:49:23;14.05;;;10.50;;
72584;SDS011;60618;40.084;32.908;2023-09-07T09:51:50;14.82;;;9.95;;
72584;SDS011;60618;40.084;32.908;2023-09-07T09:54:17;13.73;;;9.32;;
72584;SDS011;60618;40.084;32.908;2023-09-07T09:56:44;12.80;;;10.07;;
72584;SDS011;60618;40.084;32.908;2023-09-07T09:59:13;12.40;;;9.10;;
72584;SDS011;60618;40.084;32.908;2023-09-07T10:01:42;12.25;;;9.55;;
72584;SDS011;60618;40.084;32.908;2023-09-07T10:04:15;13.10;;;9.75;;
72584;SDS011;60618;40.084;32.908;2023-09-07T10:06:50;13.40;;;9.90;;
72584;SDS011;60618;40.084;32.908;2023-09-07T10:09:21;12.90;;;10.27;;
72584;SDS011;60618;40.084;32.908;2023-09-07T10:11:51;12.50;;;9.73;;
72584;SDS011;60618;40.084;32.908;2023-09-07T10:14:19;11.32;;;9.25;;
72584;SDS011;60618;40.084;32.908;2023-09-07T10:16:51;14.02;;;10.25;;
72584;SDS011;60618;40.084;32.908;2023-09-07T10:19:20;12.88;;;10.02;;
72584;SDS011;60618;40.084;32.908;2023-09-07T10:21:48;13.53;;;9.87;;
72584;SDS011;60618;40.084;32.908;2023-09-07T10:24:32;12.77;;;10.20;;
72584;SDS011;60618;40.084;32.908;2023-09-07T10:27:03;14.60;;;10.50;;
72584;SDS011;60618;40.084;32.908;2023-09-07T10:29:44;15.65;;;10.48;;
72584;SDS011;60618;40.084;32.908;2023-09-07T10:32:13;11.75;;;9.52;;
72584;SDS011;60618;40.084;32.908;2023-09-07T10:34:43;14.03;;;10.53;;
72584;SDS011;60618;40.084;32.908;2023-09-07T10:37:11;12.13;;;10.10;;
72584;SDS011;60618;40.084;32.908;2023-09-07T10:39:39;12.40;;;9.90;;
72584;SDS011;60618;40.084;32.908;2023-09-07T10:42:07;11.65;;;9.68;;
72584;SDS011;60618;40.084;32.908;2023-09-07T10:44:34;13.70;;;9.95;;
72584;SDS011;60618;40.084;32.908;2023-09-07T10:47:01;14.73;;;10.93;;
72584;SDS011;60618;40.084;32.908;2023-09-07T10:49:30;13.73;;;10.48;;
72584;SDS011;60618;40.084;32.908;2023-09-07T10:51:57;15.90;;;10.15;;
72584;SDS011;60618;40.084;32.908;2023-09-07T10:54:24;14.60;;;10.48;;
72584;SDS011;60618;40.084;32.908;2023-09-07T10:56:51;13.48;;;10.70;;
72584;SDS011;60618;40.084;32.908;2023-09-07T10:59:19;14.00;;;9.90;;
72584;SDS011;60618;40.084;32.908;2023-09-07T11:23:59;13.23;;;9.70;;
72584;SDS011;60618;40.084;32.908;2023-09-07T11:26:26;12.52;;;9.38;;
72584;SDS011;60618;40.084;32.908;2023-09-07T11:28:53;12.53;;;9.40;;
72584;SDS011;60618;40.084;32.908;2023-09-07T11:31:22;12.63;;;9.77;;
72584;SDS011;60618;40.084;32.908;2023-09-07T11:33:50;11.98;;;9.52;;
72584;SDS011;60618;40.084;32.908;2023-09-07T11:36:17;11.40;;;9.00;;
72584;SDS011;60618;40.084;32.908;2023-09-07T11:38:44;10.00;;;8.35;;
72584;SDS011;60618;40.084;32.908;2023-09-07T11:41:11;15.03;;;9.37;;
72584;SDS011;60618;40.084;32.908;2023-09-07T11:43:38;11.50;;;8.70;;
72584;SDS011;60618;40.084;32.908;2023-09-07T11:46:05;10.60;;;8.52;;
72584;SDS011;60618;40.084;32.908;2023-09-07T11:48:34;10.13;;;7.85;;
72584;SDS011;60618;40.084;32.908;2023-09-07T11:51:01;12.57;;;8.20;;
72584;SDS011;60618;40.084;32.908;2023-09-07T11:53:28;9.23;;;7.00;;
72584;SDS011;60618;40.084;32.908;2023-09-07T11:55:56;8.55;;;6.10;;
72584;SDS011;60618;40.084;32.908;2023-09-07T11:58:23;9.65;;;6.07;;
72584;SDS011;60618;40.084;32.908;2023-09-07T12:00:52;9.00;;;6.30;;
72584;SDS011;60618;40.084;32.908;2023-09-07T12:03:19;7.95;;;5.90;;
72584;SDS011;60618;40.084;32.908;2023-09-07T12:05:46;9.00;;;5.40;;
72584;SDS011;60618;40.084;32.908;2023-09-07T12:08:13;8.77;;;4.97;;
72584;SDS011;60618;40.084;32.908;2023-09-07T12:10:40;12.02;;;6.15;;
72584;SDS011;60618;40.084;32.908;2023-09-07T12:13:06;8.70;;;6.32;;
72584;SDS011;60618;40.084;32.908;2023-09-07T12:15:33;8.05;;;6.20;;
72584;SDS011;60618;40.084;32.908;2023-09-07T12:18:00;10.03;;;6.43;;
72584;SDS011;60618;40.084;32.908;2023-09-07T12:20:27;8.55;;;6.00;;
72584;SDS011;60618;40.084;32.908;2023-09-07T12:22:55;9.73;;;5.97;;
72584;SDS011;60618;40.084;32.908;2023-09-07T12:25:24;8.40;;;6.28;;
72584;SDS011;60618;40.084;32.908;2023-09-07T12:27:51;9.40;;;6.20;;
72584;SDS011;60618;40.084;32.908;2023-09-07T12:30:20;9.67;;;7.33;;
72584;SDS011;60618;40.084;32.908;2023-09-07T12:32:49;11.38;;;7.15;;
72584;SDS011;60618;40.084;32.908;2023-09-07T12:35:17;9.18;;;6.57;;
72584;SDS011;60618;40.084;32.908;2023-09-07T12:37:44;10.05;;;7.03;;
72584;SDS011;60618;40.084;32.908;2023-09-07T12:40:11;10.40;;;6.60;;
72584;SDS011;60618;40.084;32.908;2023-09-07T12:42:39;9.60;;;6.60;;
72584;SDS011;60618;40.084;32.908;2023-09-07T12:45:10;10.88;;;7.22;;
72584;SDS011;60618;40.084;32.908;2023-09-07T12:47:39;9.50;;;6.70;;
72584;SDS011;60618;40.084;32.908;2023-09-07T12:50:06;10.43;;;7.30;;
72584;SDS011;60618;40.084;32.908;2023-09-07T12:52:34;10.63;;;7.63;;
72584;SDS011;60618;40.084;32.908;2023-09-07T12:55:02;9.67;;;6.70;;
72584;SDS011;60618;40.084;32.908;2023-09-07T12:57:33;14.25;;;7.30;;
72584;SDS011;60618;40.084;32.908;2023-09-07T13:00:00;10.63;;;7.30;;
72584;SDS011;60618;40.084;32.908;2023-09-07T13:02:27;11.10;;;6.72;;
72584;SDS011;60618;40.084;32.908;2023-09-07T13:04:54;9.77;;;6.43;;
72584;SDS011;60618;40.084;32.908;2023-09-07T13:07:21;9.73;;;7.20;;
72584;SDS011;60618;40.084;32.908;2023-09-07T13:09:48;10.60;;;7.80;;
72584;SDS011;60618;40.084;32.908;2023-09-07T13:12:15;8.55;;;6.97;;
72584;SDS011;60618;40.084;32.908;2023-09-07T13:14:42;9.70;;;7.00;;
72584;SDS011;60618;40.084;32.908;2023-09-07T13:17:13;11.75;;;7.70;;
72584;SDS011;60618;40.084;32.908;2023-09-07T13:19:41;10.70;;;7.67;;
72584;SDS011;60618;40.084;32.908;2023-09-07T13:22:08;12.07;;;7.65;;
72584;SDS011;60618;40.084;32.908;2023-09-07T13:24:36;8.15;;;6.57;;
72584;SDS011;60618;40.084;32.908;2023-09-07T13:27:03;10.20;;;7.72;;
72584;SDS011;60618;40.084;32.908;2023-09-07T13:29:33;11.77;;;8.00;;
72584;SDS011;60618;40.084;32.908;2023-09-07T13:32:01;10.13;;;7.90;;
72584;SDS011;60618;40.084;32.908;2023-09-07T13:34:28;10.32;;;7.55;;
72584;SDS011;60618;40.084;32.908;2023-09-07T13:36:55;9.70;;;7.95;;
72584;SDS011;60618;40.084;32.908;2023-09-07T13:39:23;9.35;;;7.30;;
72584;SDS011;60618;40.084;32.908;2023-09-07T13:41:50;10.43;;;7.82;;
72584;SDS011;60618;40.084;32.908;2023-09-07T13:44:17;12.23;;;7.97;;
72584;SDS011;60618;40.084;32.908;2023-09-07T13:46:44;12.40;;;7.95;;
72584;SDS011;60618;40.084;32.908;2023-09-07T13:49:12;12.05;;;7.70;;
72584;SDS011;60618;40.084;32.908;2023-09-07T13:51:41;9.85;;;7.22;;
72584;SDS011;60618;40.084;32.908;2023-09-07T13:54:09;9.32;;;7.18;;
72584;SDS011;60618;40.084;32.908;2023-09-07T13:56:36;11.23;;;8.20;;
72584;SDS011;60618;40.084;32.908;2023-09-07T13:59:03;10.25;;;8.20;;
72584;SDS011;60618;40.084;32.908;2023-09-07T14:01:31;13.38;;;7.82;;
72584;SDS011;60618;40.084;32.908;2023-09-07T14:03:59;9.80;;;8.18;;
72584;SDS011;60618;40.084;32.908;2023-09-07T14:06:26;11.13;;;7.55;;
72584;SDS011;60618;40.084;32.908;2023-09-07T14:08:53;9.90;;;7.20;;
72584;SDS011;60618;40.084;32.908;2023-09-07T14:11:20;10.27;;;7.80;;
72584;SDS011;60618;40.084;32.908;2023-09-07T14:13:48;12.27;;;8.40;;
72584;SDS011;60618;40.084;32.908;2023-09-07T14:16:15;12.80;;;8.05;;
72584;SDS011;60618;40.084;32.908;2023-09-07T14:18:42;10.35;;;7.55;;
72584;SDS011;60618;40.084;32.908;2023-09-07T14:21:08;10.70;;;7.83;;
72584;SDS011;60618;40.084;32.908;2023-09-07T14:23:35;12.85;;;8.25;;
72584;SDS011;60618;40.084;32.908;2023-09-07T14:26:02;10.70;;;7.70;;
72584;SDS011;60618;40.084;32.908;2023-09-07T14:28:29;12.05;;;8.25;;
72584;SDS011;60618;40.084;32.908;2023-09-07T14:30:56;9.90;;;7.53;;
72584;SDS011;60618;40.084;32.908;2023-09-07T14:33:23;15.13;;;7.70;;
72584;SDS011;60618;40.084;32.908;2023-09-07T14:35:53;9.25;;;7.10;;
72584;SDS011;60618;40.084;32.908;2023-09-07T14:38:20;10.73;;;7.35;;
72584;SDS011;60618;40.084;32.908;2023-09-07T14:40:47;12.05;;;7.30;;
72584;SDS011;60618;40.084;32.908;2023-09-07T14:43:14;9.98;;;7.50;;
72584;SDS011;60618;40.084;32.908;2023-09-07T14:45:41;8.90;;;7.30;;
72584;SDS011;60618;40.084;32.908;2023-09-07T14:48:09;9.98;;;7.20;;